sensor_id;sensor_type;location;lat;lon;timestamp;P1;durP1;ratioP1;P2;durP2;ratioP2
71127;SDS011;59249;59.736;30.568;2023-11-22T00:01:40;7.68;;;3.20;;
71127;SDS011;59249;59.736;30.568;2023-11-22T00:04:09;6.73;;;2.47;;
71127;SDS011;59249;59.736;30.568;2023-11-22T00:06:38;4.43;;;2.20;;
71127;SDS011;59249;59.736;30.568;2023-11-22T00:09:08;5.05;;;1.63;;
71127;SDS011;59249;59.736;30.568;2023-11-22T00:11:36;7.10;;;3.05;;
71127;SDS011;59249;59.736;30.568;2023-11-22T00:14:07;8.90;;;2.42;;
71127;SDS011;59249;59.736;30.568;2023-11-22T00:16:36;6.87;;;1.57;;
71127;SDS011;59249;59.736;30.568;2023-11-22T00:19:07;7.13;;;2.15;;
71127;SDS011;59249;59.736;30.568;2023-11-22T00:21:36;9.05;;;3.42;;
71127;SDS011;59249;59.736;30.568;2023-11-22T00:24:05;8.07;;;2.45;;
71127;SDS011;59249;59.736;30.568;2023-11-22T00:26:35;7.97;;;1.75;;
71127;SDS011;59249;59.736;30.568;2023-11-22T00:29:03;3.10;;;1.33;;
71127;SDS011;59249;59.736;30.568;2023-11-22T00:31:33;7.32;;;1.20;;
71127;SDS011;59249;59.736;30.568;2023-11-22T00:34:02;8.35;;;2.38;;
71127;SDS011;59249;59.736;30.568;2023-11-22T00:36:31;6.75;;;1.92;;
71127;SDS011;59249;59.736;30.568;2023-11-22T00:39:00;8.13;;;2.70;;
71127;SDS011;59249;59.736;30.568;2023-11-22T00:41:30;6.67;;;2.23;;
71127;SDS011;59249;59.736;30.568;2023-11-22T00:43:59;5.43;;;2.10;;
71127;SDS011;59249;59.736;30.568;2023-11-22T00:46:28;5.30;;;1.90;;
71127;SDS011;59249;59.736;30.568;2023-11-22T00:48:58;6.70;;;2.05;;
71127;SDS011;59249;59.736;30.568;2023-11-22T00:51:30;4.03;;;1.35;;
71127;SDS011;59249;59.736;30.568;2023-11-22T00:54:16;8.17;;;2.23;;
71127;SDS011;59249;59.736;30.568;2023-11-22T00:56:45;5.85;;;2.60;;
71127;SDS011;59249;59.736;30.568;2023-11-22T00:59:14;7.10;;;2.08;;
71127;SDS011;59249;59.736;30.568;2023-11-22T01:01:44;5.40;;;1.80;;
71127;SDS011;59249;59.736;30.568;2023-11-22T01:04:14;10.07;;;2.50;;
71127;SDS011;59249;59.736;30.568;2023-11-22T01:06:43;6.70;;;2.90;;
71127;SDS011;59249;59.736;30.568;2023-11-22T01:09:12;7.13;;;1.42;;
71127;SDS011;59249;59.736;30.568;2023-11-22T01:11:42;9.55;;;2.88;;
71127;SDS011;59249;59.736;30.568;2023-11-22T01:14:12;10.35;;;2.63;;
71127;SDS011;59249;59.736;30.568;2023-11-22T01:16:41;6.70;;;2.20;;
71127;SDS011;59249;59.736;30.568;2023-11-22T01:19:10;8.97;;;2.20;;
71127;SDS011;59249;59.736;30.568;2023-11-22T01:21:40;14.80;;;2.60;;
71127;SDS011;59249;59.736;30.568;2023-11-22T01:24:09;7.28;;;2.15;;
71127;SDS011;59249;59.736;30.568;2023-11-22T01:26:39;7.28;;;1.60;;
71127;SDS011;59249;59.736;30.568;2023-11-22T01:29:08;8.57;;;2.22;;
71127;SDS011;59249;59.736;30.568;2023-11-22T01:31:39;8.97;;;3.33;;
71127;SDS011;59249;59.736;30.568;2023-11-22T01:34:09;9.80;;;3.83;;
71127;SDS011;59249;59.736;30.568;2023-11-22T01:36:40;7.25;;;3.05;;
71127;SDS011;59249;59.736;30.568;2023-11-22T01:39:12;9.40;;;3.22;;
71127;SDS011;59249;59.736;30.568;2023-11-22T01:41:43;10.82;;;2.83;;
71127;SDS011;59249;59.736;30.568;2023-11-22T01:44:12;10.67;;;2.53;;
71127;SDS011;59249;59.736;30.568;2023-11-22T01:46:41;9.13;;;3.15;;
71127;SDS011;59249;59.736;30.568;2023-11-22T01:49:11;17.58;;;3.20;;
71127;SDS011;59249;59.736;30.568;2023-11-22T01:51:40;10.25;;;3.03;;
71127;SDS011;59249;59.736;30.568;2023-11-22T01:54:11;6.53;;;2.20;;
71127;SDS011;59249;59.736;30.568;2023-11-22T01:56:40;10.23;;;3.33;;
71127;SDS011;59249;59.736;30.568;2023-11-22T01:59:09;9.02;;;2.67;;
71127;SDS011;59249;59.736;30.568;2023-11-22T02:01:38;6.78;;;2.72;;
71127;SDS011;59249;59.736;30.568;2023-11-22T02:04:07;7.95;;;2.80;;
71127;SDS011;59249;59.736;30.568;2023-11-22T02:06:36;7.68;;;3.42;;
71127;SDS011;59249;59.736;30.568;2023-11-22T02:09:07;13.60;;;4.43;;
71127;SDS011;59249;59.736;30.568;2023-11-22T02:11:40;6.13;;;2.47;;
71127;SDS011;59249;59.736;30.568;2023-11-22T02:14:12;7.00;;;2.33;;
71127;SDS011;59249;59.736;30.568;2023-11-22T02:16:41;7.85;;;1.85;;
71127;SDS011;59249;59.736;30.568;2023-11-22T02:19:13;11.50;;;3.92;;
71127;SDS011;59249;59.736;30.568;2023-11-22T02:21:43;6.47;;;1.57;;
71127;SDS011;59249;59.736;30.568;2023-11-22T02:24:14;5.50;;;1.77;;
71127;SDS011;59249;59.736;30.568;2023-11-22T02:26:43;7.97;;;2.63;;
71127;SDS011;59249;59.736;30.568;2023-11-22T02:29:14;11.85;;;3.25;;
71127;SDS011;59249;59.736;30.568;2023-11-22T02:31:43;14.40;;;3.95;;
71127;SDS011;59249;59.736;30.568;2023-11-22T02:34:12;14.80;;;3.13;;
71127;SDS011;59249;59.736;30.568;2023-11-22T02:36:42;8.05;;;3.00;;
71127;SDS011;59249;59.736;30.568;2023-11-22T02:39:26;9.25;;;4.18;;
71127;SDS011;59249;59.736;30.568;2023-11-22T02:42:08;8.57;;;2.88;;
71127;SDS011;59249;59.736;30.568;2023-11-22T02:44:37;8.55;;;3.25;;
71127;SDS011;59249;59.736;30.568;2023-11-22T02:47:06;8.73;;;2.83;;
71127;SDS011;59249;59.736;30.568;2023-11-22T02:49:37;8.10;;;3.20;;
71127;SDS011;59249;59.736;30.568;2023-11-22T02:52:06;7.57;;;1.58;;
71127;SDS011;59249;59.736;30.568;2023-11-22T02:54:36;4.40;;;1.60;;
71127;SDS011;59249;59.736;30.568;2023-11-22T02:57:05;6.85;;;2.17;;
71127;SDS011;59249;59.736;30.568;2023-11-22T02:59:34;11.13;;;3.00;;
71127;SDS011;59249;59.736;30.568;2023-11-22T03:02:03;9.13;;;3.33;;
71127;SDS011;59249;59.736;30.568;2023-11-22T03:04:32;8.52;;;3.00;;
71127;SDS011;59249;59.736;30.568;2023-11-22T03:07:01;8.77;;;2.72;;
71127;SDS011;59249;59.736;30.568;2023-11-22T03:09:30;6.93;;;2.03;;
71127;SDS011;59249;59.736;30.568;2023-11-22T03:12:00;9.60;;;2.73;;
71127;SDS011;59249;59.736;30.568;2023-11-22T03:14:29;6.30;;;1.83;;
71127;SDS011;59249;59.736;30.568;2023-11-22T03:16:58;6.47;;;2.20;;
71127;SDS011;59249;59.736;30.568;2023-11-22T03:19:27;7.18;;;2.47;;
71127;SDS011;59249;59.736;30.568;2023-11-22T03:21:56;8.90;;;3.03;;
71127;SDS011;59249;59.736;30.568;2023-11-22T03:24:25;7.17;;;2.50;;
71127;SDS011;59249;59.736;30.568;2023-11-22T03:26:55;12.35;;;2.85;;
71127;SDS011;59249;59.736;30.568;2023-11-22T03:29:27;13.70;;;3.03;;
71127;SDS011;59249;59.736;30.568;2023-11-22T03:31:56;8.10;;;2.75;;
71127;SDS011;59249;59.736;30.568;2023-11-22T03:34:24;8.20;;;2.95;;
71127;SDS011;59249;59.736;30.568;2023-11-22T03:36:53;6.67;;;1.63;;
71127;SDS011;59249;59.736;30.568;2023-11-22T03:39:22;11.85;;;2.88;;
71127;SDS011;59249;59.736;30.568;2023-11-22T03:41:51;11.30;;;3.38;;
71127;SDS011;59249;59.736;30.568;2023-11-22T03:44:20;10.27;;;2.28;;
71127;SDS011;59249;59.736;30.568;2023-11-22T03:46:50;8.60;;;2.90;;
71127;SDS011;59249;59.736;30.568;2023-11-22T03:49:19;11.20;;;3.80;;
71127;SDS011;59249;59.736;30.568;2023-11-22T03:51:48;11.95;;;3.28;;
71127;SDS011;59249;59.736;30.568;2023-11-22T03:54:17;17.25;;;3.60;;
71127;SDS011;59249;59.736;30.568;2023-11-22T03:56:46;15.15;;;4.55;;
71127;SDS011;59249;59.736;30.568;2023-11-22T03:59:15;14.27;;;3.83;;
71127;SDS011;59249;59.736;30.568;2023-11-22T04:01:43;10.10;;;3.07;;
71127;SDS011;59249;59.736;30.568;2023-11-22T04:04:14;7.85;;;3.25;;
71127;SDS011;59249;59.736;30.568;2023-11-22T04:06:43;12.77;;;3.30;;
71127;SDS011;59249;59.736;30.568;2023-11-22T04:09:11;12.55;;;2.90;;
71127;SDS011;59249;59.736;30.568;2023-11-22T04:11:40;11.00;;;3.40;;
71127;SDS011;59249;59.736;30.568;2023-11-22T04:14:09;8.13;;;3.40;;
71127;SDS011;59249;59.736;30.568;2023-11-22T04:16:38;7.93;;;2.80;;
71127;SDS011;59249;59.736;30.568;2023-11-22T04:19:07;7.22;;;2.75;;
71127;SDS011;59249;59.736;30.568;2023-11-22T04:21:38;12.63;;;3.40;;
71127;SDS011;59249;59.736;30.568;2023-11-22T04:24:07;12.60;;;4.45;;
71127;SDS011;59249;59.736;30.568;2023-11-22T04:26:38;8.33;;;2.87;;
71127;SDS011;59249;59.736;30.568;2023-11-22T04:29:07;7.72;;;2.63;;
71127;SDS011;59249;59.736;30.568;2023-11-22T04:31:36;9.10;;;2.97;;
71127;SDS011;59249;59.736;30.568;2023-11-22T04:34:04;11.65;;;3.35;;
71127;SDS011;59249;59.736;30.568;2023-11-22T04:36:33;11.65;;;4.47;;
71127;SDS011;59249;59.736;30.568;2023-11-22T04:39:04;7.47;;;2.97;;
71127;SDS011;59249;59.736;30.568;2023-11-22T04:41:34;9.25;;;2.83;;
71127;SDS011;59249;59.736;30.568;2023-11-22T04:44:03;8.43;;;3.42;;
71127;SDS011;59249;59.736;30.568;2023-11-22T04:46:32;14.55;;;4.25;;
71127;SDS011;59249;59.736;30.568;2023-11-22T04:49:01;6.00;;;1.85;;
71127;SDS011;59249;59.736;30.568;2023-11-22T04:51:30;16.70;;;5.10;;
71127;SDS011;59249;59.736;30.568;2023-11-22T04:53:59;10.52;;;4.68;;
71127;SDS011;59249;59.736;30.568;2023-11-22T04:56:29;16.52;;;5.35;;
71127;SDS011;59249;59.736;30.568;2023-11-22T04:58:58;13.95;;;4.13;;
71127;SDS011;59249;59.736;30.568;2023-11-22T05:01:30;10.90;;;3.97;;
71127;SDS011;59249;59.736;30.568;2023-11-22T05:04:00;16.93;;;4.50;;
71127;SDS011;59249;59.736;30.568;2023-11-22T05:06:30;10.38;;;4.45;;
71127;SDS011;59249;59.736;30.568;2023-11-22T05:08:59;10.55;;;4.15;;
71127;SDS011;59249;59.736;30.568;2023-11-22T05:11:27;15.40;;;5.25;;
71127;SDS011;59249;59.736;30.568;2023-11-22T05:13:58;13.32;;;5.05;;
71127;SDS011;59249;59.736;30.568;2023-11-22T05:16:27;10.23;;;4.10;;
71127;SDS011;59249;59.736;30.568;2023-11-22T05:18:55;12.77;;;4.97;;
71127;SDS011;59249;59.736;30.568;2023-11-22T05:21:24;6.35;;;2.50;;
71127;SDS011;59249;59.736;30.568;2023-11-22T05:23:53;11.35;;;4.90;;
71127;SDS011;59249;59.736;30.568;2023-11-22T05:26:22;8.25;;;4.00;;
71127;SDS011;59249;59.736;30.568;2023-11-22T05:28:52;5.77;;;2.73;;
71127;SDS011;59249;59.736;30.568;2023-11-22T05:31:21;6.55;;;2.25;;
71127;SDS011;59249;59.736;30.568;2023-11-22T05:33:50;5.35;;;2.40;;
71127;SDS011;59249;59.736;30.568;2023-11-22T05:36:19;8.63;;;2.42;;
71127;SDS011;59249;59.736;30.568;2023-11-22T05:38:48;6.47;;;1.33;;
71127;SDS011;59249;59.736;30.568;2023-11-22T05:41:17;7.03;;;1.33;;
71127;SDS011;59249;59.736;30.568;2023-11-22T05:43:46;4.82;;;1.50;;
71127;SDS011;59249;59.736;30.568;2023-11-22T05:46:16;2.75;;;1.05;;
71127;SDS011;59249;59.736;30.568;2023-11-22T05:48:48;4.85;;;1.13;;
71127;SDS011;59249;59.736;30.568;2023-11-22T05:51:18;3.63;;;0.85;;
71127;SDS011;59249;59.736;30.568;2023-11-22T05:53:47;3.43;;;1.00;;
71127;SDS011;59249;59.736;30.568;2023-11-22T05:56:16;4.10;;;1.00;;
71127;SDS011;59249;59.736;30.568;2023-11-22T05:58:45;1.30;;;0.38;;
71127;SDS011;59249;59.736;30.568;2023-11-22T06:01:16;2.88;;;1.00;;
71127;SDS011;59249;59.736;30.568;2023-11-22T06:03:45;3.35;;;1.67;;
71127;SDS011;59249;59.736;30.568;2023-11-22T06:06:15;2.93;;;0.80;;
71127;SDS011;59249;59.736;30.568;2023-11-22T06:08:44;7.03;;;1.55;;
71127;SDS011;59249;59.736;30.568;2023-11-22T06:11:13;3.10;;;1.73;;
71127;SDS011;59249;59.736;30.568;2023-11-22T06:13:43;4.97;;;1.33;;
71127;SDS011;59249;59.736;30.568;2023-11-22T06:16:13;6.18;;;2.22;;
71127;SDS011;59249;59.736;30.568;2023-11-22T06:18:43;7.60;;;2.60;;
71127;SDS011;59249;59.736;30.568;2023-11-22T06:21:12;4.95;;;1.05;;
71127;SDS011;59249;59.736;30.568;2023-11-22T06:23:41;4.68;;;1.45;;
71127;SDS011;59249;59.736;30.568;2023-11-22T06:26:10;5.30;;;1.60;;
71127;SDS011;59249;59.736;30.568;2023-11-22T06:28:38;5.05;;;1.80;;
71127;SDS011;59249;59.736;30.568;2023-11-22T06:31:07;3.23;;;1.07;;
71127;SDS011;59249;59.736;30.568;2023-11-22T06:33:36;7.32;;;1.88;;
71127;SDS011;59249;59.736;30.568;2023-11-22T06:36:08;4.25;;;1.17;;
71127;SDS011;59249;59.736;30.568;2023-11-22T06:38:40;4.00;;;1.75;;
71127;SDS011;59249;59.736;30.568;2023-11-22T06:41:09;6.70;;;2.92;;
71127;SDS011;59249;59.736;30.568;2023-11-22T06:43:38;13.90;;;3.37;;
71127;SDS011;59249;59.736;30.568;2023-11-22T06:46:06;8.75;;;2.50;;
71127;SDS011;59249;59.736;30.568;2023-11-22T06:48:36;18.48;;;2.90;;
71127;SDS011;59249;59.736;30.568;2023-11-22T06:51:06;4.53;;;1.98;;
71127;SDS011;59249;59.736;30.568;2023-11-22T06:53:35;7.90;;;2.85;;
71127;SDS011;59249;59.736;30.568;2023-11-22T06:56:04;7.37;;;2.37;;
71127;SDS011;59249;59.736;30.568;2023-11-22T06:58:34;8.30;;;2.78;;
71127;SDS011;59249;59.736;30.568;2023-11-22T07:01:02;7.57;;;3.33;;
71127;SDS011;59249;59.736;30.568;2023-11-22T07:03:31;7.15;;;2.33;;
71127;SDS011;59249;59.736;30.568;2023-11-22T07:06:00;9.40;;;3.17;;
71127;SDS011;59249;59.736;30.568;2023-11-22T07:08:32;5.57;;;2.13;;
71127;SDS011;59249;59.736;30.568;2023-11-22T07:11:02;6.72;;;1.83;;
71127;SDS011;59249;59.736;30.568;2023-11-22T07:13:32;5.95;;;1.60;;
71127;SDS011;59249;59.736;30.568;2023-11-22T07:16:06;3.78;;;1.35;;
71127;SDS011;59249;59.736;30.568;2023-11-22T07:18:35;6.07;;;1.75;;
71127;SDS011;59249;59.736;30.568;2023-11-22T07:21:04;4.27;;;1.70;;
71127;SDS011;59249;59.736;30.568;2023-11-22T07:23:34;2.92;;;1.23;;
71127;SDS011;59249;59.736;30.568;2023-11-22T07:26:03;4.72;;;1.55;;
71127;SDS011;59249;59.736;30.568;2023-11-22T07:28:33;4.43;;;1.20;;
71127;SDS011;59249;59.736;30.568;2023-11-22T07:31:03;5.35;;;1.23;;
71127;SDS011;59249;59.736;30.568;2023-11-22T07:33:36;6.87;;;0.93;;
71127;SDS011;59249;59.736;30.568;2023-11-22T07:36:05;1.55;;;0.30;;
71127;SDS011;59249;59.736;30.568;2023-11-22T07:38:36;5.22;;;1.63;;
71127;SDS011;59249;59.736;30.568;2023-11-22T07:41:08;6.63;;;1.45;;
71127;SDS011;59249;59.736;30.568;2023-11-22T07:43:37;3.83;;;1.30;;
71127;SDS011;59249;59.736;30.568;2023-11-22T07:46:06;5.37;;;0.90;;
71127;SDS011;59249;59.736;30.568;2023-11-22T07:48:41;5.30;;;0.98;;
71127;SDS011;59249;59.736;30.568;2023-11-22T07:51:12;2.28;;;0.60;;
71127;SDS011;59249;59.736;30.568;2023-11-22T07:53:45;2.95;;;0.80;;
71127;SDS011;59249;59.736;30.568;2023-11-22T07:56:14;3.55;;;0.95;;
71127;SDS011;59249;59.736;30.568;2023-11-22T07:58:45;3.43;;;0.80;;
71127;SDS011;59249;59.736;30.568;2023-11-22T08:01:14;2.88;;;0.75;;
71127;SDS011;59249;59.736;30.568;2023-11-22T08:03:43;3.40;;;1.02;;
71127;SDS011;59249;59.736;30.568;2023-11-22T08:06:14;2.83;;;0.55;;
71127;SDS011;59249;59.736;30.568;2023-11-22T08:08:45;1.58;;;0.30;;
71127;SDS011;59249;59.736;30.568;2023-11-22T08:11:14;2.20;;;0.53;;
71127;SDS011;59249;59.736;30.568;2023-11-22T08:13:44;1.73;;;0.47;;
71127;SDS011;59249;59.736;30.568;2023-11-22T08:16:14;3.47;;;0.52;;
71127;SDS011;59249;59.736;30.568;2023-11-22T08:18:44;3.85;;;0.90;;
71127;SDS011;59249;59.736;30.568;2023-11-22T08:21:14;2.83;;;0.73;;
71127;SDS011;59249;59.736;30.568;2023-11-22T08:23:46;4.30;;;1.27;;
71127;SDS011;59249;59.736;30.568;2023-11-22T08:26:15;2.03;;;0.57;;
71127;SDS011;59249;59.736;30.568;2023-11-22T08:28:45;4.05;;;1.52;;
71127;SDS011;59249;59.736;30.568;2023-11-22T08:31:14;4.47;;;1.55;;
71127;SDS011;59249;59.736;30.568;2023-11-22T08:33:43;2.67;;;0.90;;
71127;SDS011;59249;59.736;30.568;2023-11-22T08:36:12;2.87;;;0.63;;
71127;SDS011;59249;59.736;30.568;2023-11-22T08:38:41;2.53;;;0.73;;
71127;SDS011;59249;59.736;30.568;2023-11-22T08:41:12;2.50;;;0.82;;
71127;SDS011;59249;59.736;30.568;2023-11-22T08:43:41;0.93;;;0.25;;
71127;SDS011;59249;59.736;30.568;2023-11-22T08:46:10;2.25;;;0.73;;
71127;SDS011;59249;59.736;30.568;2023-11-22T08:48:41;3.70;;;1.20;;
71127;SDS011;59249;59.736;30.568;2023-11-22T08:51:10;2.00;;;0.32;;
71127;SDS011;59249;59.736;30.568;2023-11-22T08:53:40;2.58;;;0.50;;
71127;SDS011;59249;59.736;30.568;2023-11-22T08:56:13;2.47;;;0.57;;
71127;SDS011;59249;59.736;30.568;2023-11-22T08:58:43;3.63;;;1.80;;
71127;SDS011;59249;59.736;30.568;2023-11-22T09:01:14;3.10;;;0.93;;
71127;SDS011;59249;59.736;30.568;2023-11-22T09:03:43;5.32;;;1.55;;
71127;SDS011;59249;59.736;30.568;2023-11-22T09:06:12;2.78;;;0.93;;
71127;SDS011;59249;59.736;30.568;2023-11-22T09:08:42;3.85;;;1.65;;
71127;SDS011;59249;59.736;30.568;2023-11-22T09:11:14;1.50;;;0.45;;
71127;SDS011;59249;59.736;30.568;2023-11-22T09:13:46;4.30;;;0.97;;
71127;SDS011;59249;59.736;30.568;2023-11-22T09:16:16;3.42;;;0.80;;
71127;SDS011;59249;59.736;30.568;2023-11-22T09:18:46;2.17;;;0.70;;
71127;SDS011;59249;59.736;30.568;2023-11-22T09:21:18;2.85;;;1.48;;
71127;SDS011;59249;59.736;30.568;2023-11-22T09:23:48;3.95;;;1.10;;
71127;SDS011;59249;59.736;30.568;2023-11-22T09:26:18;5.33;;;1.30;;
71127;SDS011;59249;59.736;30.568;2023-11-22T09:28:47;4.18;;;1.20;;
71127;SDS011;59249;59.736;30.568;2023-11-22T09:31:16;3.33;;;0.82;;
71127;SDS011;59249;59.736;30.568;2023-11-22T09:33:48;3.00;;;0.93;;
71127;SDS011;59249;59.736;30.568;2023-11-22T09:36:17;2.55;;;0.80;;
71127;SDS011;59249;59.736;30.568;2023-11-22T09:38:46;3.27;;;0.83;;
71127;SDS011;59249;59.736;30.568;2023-11-22T09:41:14;2.47;;;0.93;;
71127;SDS011;59249;59.736;30.568;2023-11-22T09:43:45;2.30;;;0.65;;
71127;SDS011;59249;59.736;30.568;2023-11-22T09:46:16;2.17;;;0.80;;
71127;SDS011;59249;59.736;30.568;2023-11-22T09:48:47;3.58;;;0.95;;
71127;SDS011;59249;59.736;30.568;2023-11-22T09:51:20;8.00;;;1.67;;
71127;SDS011;59249;59.736;30.568;2023-11-22T09:53:52;1.88;;;0.35;;
71127;SDS011;59249;59.736;30.568;2023-11-22T09:56:26;2.42;;;0.55;;
71127;SDS011;59249;59.736;30.568;2023-11-22T09:58:57;2.70;;;0.52;;
71127;SDS011;59249;59.736;30.568;2023-11-22T10:01:29;2.85;;;1.02;;
71127;SDS011;59249;59.736;30.568;2023-11-22T10:04:00;4.17;;;0.93;;
71127;SDS011;59249;59.736;30.568;2023-11-22T10:06:32;3.78;;;1.00;;
71127;SDS011;59249;59.736;30.568;2023-11-22T10:09:02;3.97;;;1.20;;
71127;SDS011;59249;59.736;30.568;2023-11-22T10:11:35;0.98;;;0.22;;
71127;SDS011;59249;59.736;30.568;2023-11-22T10:14:08;3.40;;;1.25;;
71127;SDS011;59249;59.736;30.568;2023-11-22T10:16:37;3.87;;;1.07;;
71127;SDS011;59249;59.736;30.568;2023-11-22T10:19:06;3.88;;;1.33;;
71127;SDS011;59249;59.736;30.568;2023-11-22T10:21:36;2.78;;;0.60;;
71127;SDS011;59249;59.736;30.568;2023-11-22T10:24:07;3.67;;;0.85;;
71127;SDS011;59249;59.736;30.568;2023-11-22T10:26:36;3.05;;;0.80;;
71127;SDS011;59249;59.736;30.568;2023-11-22T10:29:08;2.90;;;0.77;;
71127;SDS011;59249;59.736;30.568;2023-11-22T10:31:40;3.38;;;0.93;;
71127;SDS011;59249;59.736;30.568;2023-11-22T10:34:12;2.20;;;0.77;;
71127;SDS011;59249;59.736;30.568;2023-11-22T10:36:41;3.42;;;0.98;;
71127;SDS011;59249;59.736;30.568;2023-11-22T10:39:10;4.47;;;1.10;;
71127;SDS011;59249;59.736;30.568;2023-11-22T10:41:43;2.60;;;0.47;;
71127;SDS011;59249;59.736;30.568;2023-11-22T10:44:15;4.75;;;0.65;;
71127;SDS011;59249;59.736;30.568;2023-11-22T10:46:48;2.72;;;0.85;;
71127;SDS011;59249;59.736;30.568;2023-11-22T10:49:19;3.72;;;0.75;;
71127;SDS011;59249;59.736;30.568;2023-11-22T10:51:50;3.05;;;0.85;;
71127;SDS011;59249;59.736;30.568;2023-11-22T10:54:21;2.80;;;0.90;;
71127;SDS011;59249;59.736;30.568;2023-11-22T10:56:54;2.28;;;0.73;;
71127;SDS011;59249;59.736;30.568;2023-11-22T10:59:28;1.58;;;0.60;;
71127;SDS011;59249;59.736;30.568;2023-11-22T11:02:01;3.00;;;0.88;;
71127;SDS011;59249;59.736;30.568;2023-11-22T11:04:34;3.08;;;0.60;;
71127;SDS011;59249;59.736;30.568;2023-11-22T11:07:14;3.03;;;0.40;;
71127;SDS011;59249;59.736;30.568;2023-11-22T11:09:50;2.80;;;0.65;;
71127;SDS011;59249;59.736;30.568;2023-11-22T11:12:20;3.88;;;0.95;;
71127;SDS011;59249;59.736;30.568;2023-11-22T11:14:52;2.67;;;0.73;;
71127;SDS011;59249;59.736;30.568;2023-11-22T11:17:21;1.52;;;0.40;;
71127;SDS011;59249;59.736;30.568;2023-11-22T11:19:51;2.30;;;0.90;;
71127;SDS011;59249;59.736;30.568;2023-11-22T11:22:22;3.38;;;1.23;;
71127;SDS011;59249;59.736;30.568;2023-11-22T11:24:59;3.97;;;0.90;;
71127;SDS011;59249;59.736;30.568;2023-11-22T11:27:35;5.20;;;1.08;;
71127;SDS011;59249;59.736;30.568;2023-11-22T11:33:13;2.97;;;1.30;;
71127;SDS011;59249;59.736;30.568;2023-11-22T11:35:46;1.88;;;0.55;;
71127;SDS011;59249;59.736;30.568;2023-11-22T11:38:17;3.10;;;0.82;;
71127;SDS011;59249;59.736;30.568;2023-11-22T11:40:48;2.75;;;0.80;;
71127;SDS011;59249;59.736;30.568;2023-11-22T11:43:20;3.35;;;0.93;;
71127;SDS011;59249;59.736;30.568;2023-11-22T11:46:10;2.23;;;0.53;;
71127;SDS011;59249;59.736;30.568;2023-11-22T11:48:42;2.78;;;0.68;;
71127;SDS011;59249;59.736;30.568;2023-11-22T11:51:14;4.28;;;1.15;;
71127;SDS011;59249;59.736;30.568;2023-11-22T11:53:45;2.67;;;0.75;;
71127;SDS011;59249;59.736;30.568;2023-11-22T11:56:16;3.67;;;0.73;;
71127;SDS011;59249;59.736;30.568;2023-11-22T11:58:49;2.13;;;0.43;;
71127;SDS011;59249;59.736;30.568;2023-11-22T12:01:20;3.20;;;0.73;;
71127;SDS011;59249;59.736;30.568;2023-11-22T12:03:49;2.95;;;1.25;;
71127;SDS011;59249;59.736;30.568;2023-11-22T12:06:22;2.55;;;0.52;;
71127;SDS011;59249;59.736;30.568;2023-11-22T12:08:51;4.28;;;1.15;;
71127;SDS011;59249;59.736;30.568;2023-11-22T12:11:20;2.53;;;0.63;;
71127;SDS011;59249;59.736;30.568;2023-11-22T12:13:49;1.25;;;0.30;;
71127;SDS011;59249;59.736;30.568;2023-11-22T12:16:22;1.92;;;0.40;;
71127;SDS011;59249;59.736;30.568;2023-11-22T12:18:51;1.75;;;0.50;;
71127;SDS011;59249;59.736;30.568;2023-11-22T12:21:20;2.08;;;0.55;;
71127;SDS011;59249;59.736;30.568;2023-11-22T12:23:50;2.90;;;0.70;;
71127;SDS011;59249;59.736;30.568;2023-11-22T12:26:20;2.55;;;0.45;;
71127;SDS011;59249;59.736;30.568;2023-11-22T12:28:49;1.77;;;0.32;;
71127;SDS011;59249;59.736;30.568;2023-11-22T12:31:32;2.47;;;0.50;;
71127;SDS011;59249;59.736;30.568;2023-11-22T12:34:03;1.90;;;0.30;;
71127;SDS011;59249;59.736;30.568;2023-11-22T12:36:34;1.67;;;0.30;;
71127;SDS011;59249;59.736;30.568;2023-11-22T12:39:06;2.17;;;1.00;;
71127;SDS011;59249;59.736;30.568;2023-11-22T12:41:44;5.03;;;0.73;;
71127;SDS011;59249;59.736;30.568;2023-11-22T12:44:28;3.70;;;0.98;;
71127;SDS011;59249;59.736;30.568;2023-11-22T12:47:01;2.30;;;1.08;;
71127;SDS011;59249;59.736;30.568;2023-11-22T12:49:43;3.23;;;0.90;;
71127;SDS011;59249;59.736;30.568;2023-11-22T12:52:13;3.75;;;0.55;;
71127;SDS011;59249;59.736;30.568;2023-11-22T12:54:43;10.43;;;1.23;;
71127;SDS011;59249;59.736;30.568;2023-11-22T12:57:14;3.78;;;1.10;;
71127;SDS011;59249;59.736;30.568;2023-11-22T12:59:48;3.00;;;1.10;;
71127;SDS011;59249;59.736;30.568;2023-11-22T13:02:19;3.97;;;1.40;;
71127;SDS011;59249;59.736;30.568;2023-11-22T13:04:48;3.40;;;1.13;;
71127;SDS011;59249;59.736;30.568;2023-11-22T13:07:17;3.30;;;0.70;;
71127;SDS011;59249;59.736;30.568;2023-11-22T13:09:46;5.45;;;1.98;;
71127;SDS011;59249;59.736;30.568;2023-11-22T13:12:15;5.15;;;1.77;;
71127;SDS011;59249;59.736;30.568;2023-11-22T13:14:46;5.47;;;1.67;;
71127;SDS011;59249;59.736;30.568;2023-11-22T13:17:19;7.43;;;2.42;;
71127;SDS011;59249;59.736;30.568;2023-11-22T13:19:48;8.13;;;2.65;;
71127;SDS011;59249;59.736;30.568;2023-11-22T13:22:17;6.90;;;2.50;;
71127;SDS011;59249;59.736;30.568;2023-11-22T13:24:46;6.70;;;2.80;;
71127;SDS011;59249;59.736;30.568;2023-11-22T13:27:16;9.33;;;2.40;;
71127;SDS011;59249;59.736;30.568;2023-11-22T13:29:44;5.57;;;2.20;;
71127;SDS011;59249;59.736;30.568;2023-11-22T13:32:13;8.50;;;2.30;;
71127;SDS011;59249;59.736;30.568;2023-11-22T13:34:45;5.50;;;2.20;;
71127;SDS011;59249;59.736;30.568;2023-11-22T13:37:14;6.88;;;1.90;;
71127;SDS011;59249;59.736;30.568;2023-11-22T13:39:45;4.37;;;1.33;;
71127;SDS011;59249;59.736;30.568;2023-11-22T13:42:14;4.50;;;1.60;;
71127;SDS011;59249;59.736;30.568;2023-11-22T13:44:43;6.95;;;2.85;;
71127;SDS011;59249;59.736;30.568;2023-11-22T13:47:12;4.60;;;1.88;;
71127;SDS011;59249;59.736;30.568;2023-11-22T13:49:50;7.30;;;2.83;;
71127;SDS011;59249;59.736;30.568;2023-11-22T13:52:19;7.00;;;2.37;;
71127;SDS011;59249;59.736;30.568;2023-11-22T13:54:50;6.20;;;1.88;;
71127;SDS011;59249;59.736;30.568;2023-11-22T13:57:25;6.68;;;3.00;;
71127;SDS011;59249;59.736;30.568;2023-11-22T13:59:57;8.05;;;2.15;;
71127;SDS011;59249;59.736;30.568;2023-11-22T14:02:26;8.07;;;2.58;;
71127;SDS011;59249;59.736;30.568;2023-11-22T14:04:57;8.73;;;3.00;;
71127;SDS011;59249;59.736;30.568;2023-11-22T14:07:31;6.75;;;2.67;;
71127;SDS011;59249;59.736;30.568;2023-11-22T14:10:03;6.32;;;1.92;;
71127;SDS011;59249;59.736;30.568;2023-11-22T14:12:34;9.68;;;3.70;;
71127;SDS011;59249;59.736;30.568;2023-11-22T14:15:04;6.55;;;2.70;;
71127;SDS011;59249;59.736;30.568;2023-11-22T14:17:34;5.40;;;1.93;;
71127;SDS011;59249;59.736;30.568;2023-11-22T14:20:07;7.38;;;2.60;;
71127;SDS011;59249;59.736;30.568;2023-11-22T14:22:43;6.55;;;2.45;;
71127;SDS011;59249;59.736;30.568;2023-11-22T14:25:12;6.68;;;2.30;;
71127;SDS011;59249;59.736;30.568;2023-11-22T14:27:45;6.47;;;2.25;;
71127;SDS011;59249;59.736;30.568;2023-11-22T14:30:20;7.47;;;2.77;;
71127;SDS011;59249;59.736;30.568;2023-11-22T14:32:50;10.10;;;3.15;;
71127;SDS011;59249;59.736;30.568;2023-11-22T14:35:26;8.40;;;3.55;;
71127;SDS011;59249;59.736;30.568;2023-11-22T14:37:55;6.75;;;2.88;;
71127;SDS011;59249;59.736;30.568;2023-11-22T14:40:27;10.60;;;3.88;;
71127;SDS011;59249;59.736;30.568;2023-11-22T14:42:58;12.77;;;3.90;;
71127;SDS011;59249;59.736;30.568;2023-11-22T14:45:30;9.80;;;3.42;;
71127;SDS011;59249;59.736;30.568;2023-11-22T14:47:59;6.50;;;2.30;;
71127;SDS011;59249;59.736;30.568;2023-11-22T14:50:30;7.40;;;2.70;;
71127;SDS011;59249;59.736;30.568;2023-11-22T14:53:00;10.20;;;4.15;;
71127;SDS011;59249;59.736;30.568;2023-11-22T14:55:29;6.87;;;2.57;;